Time;durP1;ratioP1;P1;durP2;ratioP2;P2;SDS_P1;SDS_P2;PMS_P1;PMS_P2;Temp;Humidity;BMP_temperature;BMP_pressure;BME280_temperature;BME280_humidity;BME280_pressure;Samples;Min_cycle;Max_cycle;Signal;HPM_P1;HPM_P2
2023/07/25 00:00:29;;;;;;;;;;;31.70;62.70;;;;;;5133764;28;19955;-74
2023/07/25 00:02:55;;;;;;;;;;;31.80;61.70;;;;;;5132501;28;19910;-73
2023/07/25 00:05:21;;;;;;;;;;;31.70;61.00;;;;;;5132383;28;19911;-73
2023/07/25 00:07:47;;;;;;;;;;;31.70;60.00;;;;;;5134283;28;19904;-73
2023/07/25 00:10:13;;;;;;;;;;;31.70;60.40;;;;;;5133853;27;19903;-74
2023/07/25 00:12:53;;;;;;;;;;;31.70;60.40;;;;;;5132425;28;19904;-74
2023/07/25 00:15:19;;;;;;;;;;;31.80;60.10;;;;;;5133617;27;19907;-74
2023/07/25 00:17:45;;;;;;;;;;;31.70;60.20;;;;;;5134197;27;19903;-74
2023/07/25 00:20:11;;;;;;;;;;;31.70;59.30;;;;;;5133644;28;19910;-73
2023/07/25 00:22:36;;;;;;;;;;;31.70;59.20;;;;;;5133603;27;19903;-73
2023/07/25 00:25:02;;;;;;;;;;;31.80;55.80;;;;;;5133647;27;20283;-73
2023/07/25 00:27:28;;;;;;;;;;;31.90;55.80;;;;;;5134149;27;19952;-73
2023/07/25 00:29:54;;;;;;;;;;;31.90;56.40;;;;;;5133407;28;20367;-74
2023/07/25 00:32:20;;;;;;;;;;;31.90;56.60;;;;;;5133449;27;20267;-74
2023/07/25 00:34:46;;;;;;;;;;;31.90;55.90;;;;;;5133531;28;19964;-72
2023/07/25 00:37:12;;;;;;;;;;;31.90;55.60;;;;;;5133759;27;20316;-74
2023/07/25 00:39:37;;;;;;;;;;;32.00;55.00;;;;;;5133815;27;19914;-73
2023/07/25 00:42:03;;;;;;;;;;;32.00;54.40;;;;;;5133791;27;20006;-73
2023/07/25 00:44:29;;;;;;;;;;;32.00;53.90;;;;;;5133564;27;20252;-73
2023/07/25 00:46:55;;;;;;;;;;;32.10;53.30;;;;;;5133686;27;19910;-74
2023/07/25 00:49:21;;;;;;;;;;;32.10;53.50;;;;;;5134746;27;20188;-73
2023/07/25 00:51:47;;;;;;;;;;;32.10;53.10;;;;;;5137400;27;19922;-73
2023/07/25 00:54:13;;;;;;;;;;;32.30;52.50;;;;;;5137287;27;19903;-73
2023/07/25 00:56:38;;;;;;;;;;;32.30;52.40;;;;;;5135808;27;19942;-73
2023/07/25 00:59:04;;;;;;;;;;;32.40;52.00;;;;;;5137177;27;19950;-73
2023/07/25 01:01:30;;;;;;;;;;;32.50;51.50;;;;;;5135967;27;19925;-73
2023/07/25 01:03:56;;;;;;;;;;;32.50;51.00;;;;;;5135636;27;20336;-73
2023/07/25 01:06:22;;;;;;;;;;;32.60;50.20;;;;;;5137355;27;19903;-73
2023/07/25 01:08:51;;;;;;;;;;;32.60;50.20;;;;;;5137024;27;20330;-74
2023/07/25 01:11:18;;;;;;;;;;;32.60;50.10;;;;;;5137093;27;19903;-73
2023/07/25 01:13:44;;;;;;;;;;;32.60;50.00;;;;;;5137149;27;19903;-73
2023/07/25 01:16:10;;;;;;;;;;;32.60;50.00;;;;;;5136776;27;20434;-73
2023/07/25 01:18:36;;;;;;;;;;;32.60;49.80;;;;;;5137276;27;20255;-73
2023/07/25 01:21:03;;;;;;;;;;;32.60;49.70;;;;;;5136593;27;19903;-73
2023/07/25 01:23:29;;;;;;;;;;;32.50;49.60;;;;;;5136885;27;19907;-73
2023/07/25 01:25:55;;;;;;;;;;;32.60;49.70;;;;;;5136718;27;19907;-73
2023/07/25 01:28:21;;;;;;;;;;;32.50;49.70;;;;;;5137095;27;19910;-74
2023/07/25 01:30:47;;;;;;;;;;;32.60;49.60;;;;;;5136340;27;19904;-74
2023/07/25 01:33:13;;;;;;;;;;;32.60;49.30;;;;;;5136300;27;19926;-73
2023/07/25 01:35:38;;;;;;;;;;;32.60;49.50;;;;;;5136423;27;19904;-73
2023/07/25 01:38:04;;;;;;;;;;;32.60;48.90;;;;;;5136404;27;19946;-74
2023/07/25 01:40:30;;;;;;;;;;;32.60;48.60;;;;;;5136798;27;20339;-74
2023/07/25 01:42:56;;;;;;;;;;;32.50;48.90;;;;;;5136347;27;19910;-74
2023/07/25 01:45:22;;;;;;;;;;;32.50;49.20;;;;;;5136016;27;19919;-74
2023/07/25 01:47:47;;;;;;;;;;;32.40;49.80;;;;;;5136276;27;19907;-74
2023/07/25 01:50:14;;;;;;;;;;;32.30;50.00;;;;;;5136210;27;19911;-73
2023/07/25 01:52:39;;;;;;;;;;;32.10;49.60;;;;;;5136167;27;19904;-73
2023/07/25 01:55:06;;;;;;;;;;;32.10;49.50;;;;;;5136130;27;19910;-74
2023/07/25 01:57:31;;;;;;;;;;;32.10;49.90;;;;;;5135959;27;19910;-74
2023/07/25 01:59:57;;;;;;;;;;;32.10;49.40;;;;;;5135789;27;19994;-75
2023/07/25 02:02:23;;;;;;;;;;;32.10;49.80;;;;;;5134974;27;19911;-74
2023/07/25 02:04:49;;;;;;;;;;;32.00;49.90;;;;;;5134429;27;19911;-74
2023/07/25 02:07:15;;;;;;;;;;;32.00;48.80;;;;;;5136296;27;19998;-75
2023/07/25 02:09:41;;;;;;;;;;;32.10;49.20;;;;;;5135764;27;20331;-74
2023/07/25 02:12:07;;;;;;;;;;;32.10;49.30;;;;;;5135755;27;20274;-73
2023/07/25 02:14:33;;;;;;;;;;;32.00;49.40;;;;;;5135602;27;19910;-74
2023/07/25 02:16:59;;;;;;;;;;;32.00;48.90;;;;;;5136215;27;19907;-74
2023/07/25 02:19:25;;;;;;;;;;;32.10;49.00;;;;;;5135861;27;19904;-74
2023/07/25 02:21:51;;;;;;;;;;;32.10;48.80;;;;;;5135591;27;19909;-74
2023/07/25 02:24:16;;;;;;;;;;;32.10;49.00;;;;;;5134110;27;19911;-74
2023/07/25 02:26:42;;;;;;;;;;;32.00;49.20;;;;;;5135956;27;20340;-74
2023/07/25 02:29:08;;;;;;;;;;;32.00;49.00;;;;;;5135331;27;19989;-73
2023/07/25 02:31:34;;;;;;;;;;;32.00;49.10;;;;;;5134968;27;19911;-74
2023/07/25 02:34:01;;;;;;;;;;;32.00;49.40;;;;;;5134021;27;20051;-74
2023/07/25 02:36:26;;;;;;;;;;;31.90;49.40;;;;;;5135444;27;20300;-74
2023/07/25 02:38:52;;;;;;;;;;;32.00;49.50;;;;;;5133766;27;20002;-75
2023/07/25 02:41:18;;;;;;;;;;;31.90;49.10;;;;;;5135474;27;20330;-74
2023/07/25 02:43:44;;;;;;;;;;;31.90;49.40;;;;;;5135307;27;19907;-75
2023/07/25 02:46:10;;;;;;;;;;;31.80;49.60;;;;;;5134910;27;19958;-75
2023/07/25 02:48:36;;;;;;;;;;;31.80;49.50;;;;;;5135253;27;20267;-74
2023/07/25 02:51:02;;;;;;;;;;;31.90;49.70;;;;;;5134974;27;19910;-74
2023/07/25 02:53:27;;;;;;;;;;;31.90;49.70;;;;;;5135039;27;20301;-74
2023/07/25 02:55:54;;;;;;;;;;;31.80;49.80;;;;;;5134822;27;19911;-74
2023/07/25 02:58:20;;;;;;;;;;;31.70;50.60;;;;;;5135082;27;20339;-73
2023/07/25 03:00:47;;;;;;;;;;;31.70;52.70;;;;;;5134713;27;19903;-74
2023/07/25 03:03:13;;;;;;;;;;;31.80;54.80;;;;;;5135156;27;19951;-74
2023/07/25 03:05:39;;;;;;;;;;;31.80;53.30;;;;;;5134858;27;20364;-74
2023/07/25 03:08:05;;;;;;;;;;;31.70;53.30;;;;;;5135111;27;19904;-74
2023/07/25 03:10:31;;;;;;;;;;;31.70;53.10;;;;;;5134662;27;20085;-74
2023/07/25 03:12:57;;;;;;;;;;;31.60;54.30;;;;;;5134480;27;19903;-74
2023/07/25 03:15:23;;;;;;;;;;;31.60;56.80;;;;;;5134611;27;19903;-74
2023/07/25 03:17:49;;;;;;;;;;;31.60;56.60;;;;;;5134895;27;19914;-74
2023/07/25 03:20:15;;;;;;;;;;;31.60;57.50;;;;;;5134458;27;20369;-74
2023/07/25 03:22:41;;;;;;;;;;;31.60;57.60;;;;;;5134378;27;19903;-74
2023/07/25 03:25:07;;;;;;;;;;;31.60;57.10;;;;;;5134554;27;19911;-74
2023/07/25 03:27:33;;;;;;;;;;;31.70;57.20;;;;;;5134253;27;19910;-74
2023/07/25 03:29:58;;;;;;;;;;;31.60;57.10;;;;;;5132712;27;19915;-73
2023/07/25 03:32:24;;;;;;;;;;;31.70;58.40;;;;;;5134027;27;20057;-74
2023/07/25 03:34:50;;;;;;;;;;;31.70;58.10;;;;;;5132844;27;19907;-74
2023/07/25 03:37:16;;;;;;;;;;;31.60;55.00;;;;;;5132648;27;20350;-74
2023/07/25 03:39:42;;;;;;;;;;;31.60;55.60;;;;;;5134542;27;19903;-73
2023/07/25 03:42:07;;;;;;;;;;;31.60;57.00;;;;;;5134010;27;20351;-73
2023/07/25 03:44:33;;;;;;;;;;;31.60;59.50;;;;;;5134033;27;19955;-74
2023/07/25 03:46:59;;;;;;;;;;;31.70;59.20;;;;;;5133947;27;20319;-74
2023/07/25 03:49:25;;;;;;;;;;;31.60;59.50;;;;;;5133959;27;20010;-73
2023/07/25 03:51:50;;;;;;;;;;;31.60;59.70;;;;;;5133933;27;19911;-73
2023/07/25 03:54:17;;;;;;;;;;;31.50;62.40;;;;;;5133911;27;19903;-74
2023/07/25 03:56:44;;;;;;;;;;;31.50;64.00;;;;;;5133949;27;19910;-74
2023/07/25 03:59:10;;;;;;;;;;;31.50;61.00;;;;;;5133907;27;19904;-74
2023/07/25 04:01:36;;;;;;;;;;;31.50;65.40;;;;;;5133718;27;20038;-74
2023/07/25 04:04:01;;;;;;;;;;;31.40;66.30;;;;;;5133693;28;19911;-73
2023/07/25 04:06:27;;;;;;;;;;;31.50;67.60;;;;;;5133845;28;20243;-74
2023/07/25 04:08:53;;;;;;;;;;;31.50;66.80;;;;;;5132419;28;19959;-74
2023/07/25 04:11:19;;;;;;;;;;;31.50;67.30;;;;;;5134191;28;19908;-74
2023/07/25 04:13:45;;;;;;;;;;;31.50;65.40;;;;;;5133771;27;19903;-74
2023/07/25 04:16:11;;;;;;;;;;;31.50;63.00;;;;;;5133743;27;19911;-74
2023/07/25 04:18:36;;;;;;;;;;;31.40;64.70;;;;;;5134208;27;19903;-74
2023/07/25 04:21:02;;;;;;;;;;;31.50;66.80;;;;;;5133895;28;19910;-74
2023/07/25 04:23:28;;;;;;;;;;;31.50;66.80;;;;;;5133649;27;19908;-74
2023/07/25 04:25:54;;;;;;;;;;;31.60;68.30;;;;;;5137805;27;20056;-74
2023/07/25 04:28:20;;;;;;;;;;;31.60;66.10;;;;;;5137824;27;19903;-74
2023/07/25 04:30:45;;;;;;;;;;;31.60;64.10;;;;;;5137638;27;19904;-74
2023/07/25 04:33:11;;;;;;;;;;;31.60;64.20;;;;;;5137481;27;19972;-74
2023/07/25 04:35:37;;;;;;;;;;;31.60;66.60;;;;;;5137709;27;19910;-73
2023/07/25 04:38:03;;;;;;;;;;;31.70;66.60;;;;;;5138053;27;19904;-74
2023/07/25 04:40:29;;;;;;;;;;;31.70;63.90;;;;;;5137496;27;19939;-74
2023/07/25 04:42:55;;;;;;;;;;;31.70;67.20;;;;;;5137710;27;19909;-74
2023/07/25 04:45:20;;;;;;;;;;;31.70;64.50;;;;;;5137191;27;20362;-74
2023/07/25 04:47:46;;;;;;;;;;;31.90;63.70;;;;;;5137428;27;19903;-74
2023/07/25 04:50:12;;;;;;;;;;;32.00;63.80;;;;;;5137572;27;20335;-74
2023/07/25 04:52:38;;;;;;;;;;;31.90;64.90;;;;;;5137208;27;19990;-74
2023/07/25 04:55:04;;;;;;;;;;;32.10;65.00;;;;;;5137158;27;19946;-74
2023/07/25 04:57:29;;;;;;;;;;;32.10;65.60;;;;;;5135802;27;20347;-73
2023/07/25 04:59:55;;;;;;;;;;;32.30;67.10;;;;;;5135600;27;19910;-73
2023/07/25 05:02:21;;;;;;;;;;;32.30;62.50;;;;;;5137558;27;19927;-74
2023/07/25 05:04:47;;;;;;;;;;;32.10;61.60;;;;;;5137002;27;19969;-74
2023/07/25 05:07:13;;;;;;;;;;;32.20;61.70;;;;;;5136940;27;19949;-74
2023/07/25 05:09:39;;;;;;;;;;;32.30;63.20;;;;;;5137131;27;19908;-74
2023/07/25 05:12:06;;;;;;;;;;;32.40;64.80;;;;;;5137013;27;19904;-74
2023/07/25 05:14:31;;;;;;;;;;;32.80;65.30;;;;;;5137046;27;20001;-74
2023/07/25 05:16:57;;;;;;;;;;;33.60;65.70;;;;;;5136505;27;20015;-74
2023/07/25 05:19:23;;;;;;;;;;;34.00;63.10;;;;;;5136943;27;20231;-74
2023/07/25 05:21:49;;;;;;;;;;;34.60;61.10;;;;;;5136111;27;20343;-74
2023/07/25 05:24:15;;;;;;;;;;;35.40;63.90;;;;;;5137043;27;20354;-74
2023/07/25 05:26:41;;;;;;;;;;;36.90;60.50;;;;;;5136704;27;19910;-74
2023/07/25 05:29:07;;;;;;;;;;;37.70;59.50;;;;;;5135293;27;19946;-74
2023/07/25 05:31:33;;;;;;;;;;;38.40;59.30;;;;;;5136189;27;19990;-75
2023/07/25 05:33:59;;;;;;;;;;;39.40;57.80;;;;;;5136774;27;19915;-74
2023/07/25 05:36:24;;;;;;;;;;;40.40;57.10;;;;;;5135291;27;19903;-74
2023/07/25 05:38:50;;;;;;;;;;;41.10;56.30;;;;;;5136427;27;19938;-74
2023/07/25 05:41:16;;;;;;;;;;;42.00;56.10;;;;;;5136304;27;19909;-74
2023/07/25 05:43:42;;;;;;;;;;;43.00;54.90;;;;;;5136822;27;20363;-74
2023/07/25 05:46:08;;;;;;;;;;;42.80;54.80;;;;;;5136244;27;19908;-74
2023/07/25 05:48:34;;;;;;;;;;;42.60;55.20;;;;;;5136697;27;20281;-74
2023/07/25 05:51:00;;;;;;;;;;;42.60;55.60;;;;;;5136193;27;19904;-74
2023/07/25 05:53:26;;;;;;;;;;;42.90;55.50;;;;;;5115793;28;19903;-74
2023/07/25 05:55:52;;;;;;;;;;;44.20;54.60;;;;;;5115664;28;19918;-74
2023/07/25 05:58:18;;;;;;;;;;;43.80;54.30;;;;;;5115432;28;19910;-74
2023/07/25 06:00:44;;;;;;;;;;;42.20;55.70;;;;;;5114983;28;19999;-74
2023/07/25 06:03:13;;;;;;;;;;;41.20;57.00;;;;;;5115321;28;19994;-74
2023/07/25 06:05:39;;;;;;;;;;;41.80;57.50;;;;;;5115263;28;19924;-74
2023/07/25 06:08:05;;;;;;;;;;;43.10;56.60;;;;;;5115568;28;20253;-74
2023/07/25 06:10:31;;;;;;;;;;;43.70;55.50;;;;;;5113830;28;20359;-74
2023/07/25 06:12:57;;;;;;;;;;;44.10;55.60;;;;;;5113737;28;20325;-74
2023/07/25 06:15:23;;;;;;;;;;;43.20;53.20;;;;;;5114804;28;19916;-74
2023/07/25 06:17:49;;;;;;;;;;;44.00;52.60;;;;;;5115334;28;19933;-75
2023/07/25 06:20:15;;;;;;;;;;;43.10;52.20;;;;;;5114854;28;19907;-74
2023/07/25 06:22:41;;;;;;;;;;;44.20;51.60;;;;;;5129009;27;20215;-75
2023/07/25 06:25:12;;;;;;;;;;;43.30;53.30;;;;;;5135806;27;20006;-75
2023/07/25 06:27:38;;;;;;;;;;;44.10;52.80;;;;;;5135470;27;19903;-74
2023/07/25 06:30:04;;;;;;;;;;;45.40;52.70;;;;;;5135260;27;19903;-75
2023/07/25 06:32:30;;;;;;;;;;;45.50;52.70;;;;;;5135007;27;19915;-74
2023/07/25 06:34:56;;;;;;;;;;;45.40;52.70;;;;;;5135166;27;19911;-74
2023/07/25 06:37:22;;;;;;;;;;;45.80;52.60;;;;;;5135060;27;19933;-74
2023/07/25 06:39:48;;;;;;;;;;;45.60;52.20;;;;;;5134867;27;19998;-74
2023/07/25 06:42:13;;;;;;;;;;;44.70;51.40;;;;;;5135094;27;19939;-74
2023/07/25 06:44:39;;;;;;;;;;;43.60;52.90;;;;;;5134665;27;19915;-74
2023/07/25 06:47:05;;;;;;;;;;;43.70;52.00;;;;;;5134370;27;19911;-74
2023/07/25 06:49:31;;;;;;;;;;;43.20;52.80;;;;;;5134561;27;19909;-75
2023/07/25 06:51:57;;;;;;;;;;;42.60;53.80;;;;;;5134726;27;19931;-74
2023/07/25 06:54:23;;;;;;;;;;;44.00;53.00;;;;;;5134562;27;20351;-74
2023/07/25 06:56:48;;;;;;;;;;;45.60;52.40;;;;;;5135051;27;20292;-75
2023/07/25 06:59:14;;;;;;;;;;;46.50;52.20;;;;;;5134815;27;19975;-75
2023/07/25 07:01:40;;;;;;;;;;;47.60;50.50;;;;;;5134486;27;19904;-75
2023/07/25 07:04:06;;;;;;;;;;;47.90;49.90;;;;;;5134307;27;20355;-75
2023/07/25 07:06:32;;;;;;;;;;;48.30;49.60;;;;;;5134550;27;19907;-75
2023/07/25 07:08:57;;;;;;;;;;;48.00;49.60;;;;;;5132971;27;20355;-75
2023/07/25 07:11:23;;;;;;;;;;;48.40;49.40;;;;;;5134521;27;19940;-75
2023/07/25 07:13:49;;;;;;;;;;;47.90;49.20;;;;;;5135127;27;20384;-75
2023/07/25 07:16:15;;;;;;;;;;;48.00;49.70;;;;;;5132974;27;19911;-74
2023/07/25 07:18:41;;;;;;;;;;;48.80;49.50;;;;;;5134647;27;19947;-74
2023/07/25 07:21:08;;;;;;;;;;;49.50;48.50;;;;;;5132975;27;20255;-74
2023/07/25 07:23:33;;;;;;;;;;;48.70;48.50;;;;;;5132858;27;19932;-74
2023/07/25 07:25:59;;;;;;;;;;;48.10;48.80;;;;;;5134604;27;19939;-75
2023/07/25 07:28:25;;;;;;;;;;;47.40;49.90;;;;;;5134396;27;19903;-75
2023/07/25 07:30:51;;;;;;;;;;;46.40;50.30;;;;;;5134071;27;19907;-74
2023/07/25 07:33:20;;;;;;;;;;;46.40;51.30;;;;;;5133806;27;19920;-75
2023/07/25 07:35:46;;;;;;;;;;;46.40;51.10;;;;;;5133958;27;19904;-74
2023/07/25 07:38:13;;;;;;;;;;;45.60;51.10;;;;;;5133540;27;19926;-74
2023/07/25 07:40:39;;;;;;;;;;;44.20;52.10;;;;;;5133776;27;19912;-73
2023/07/25 07:43:05;;;;;;;;;;;43.60;53.10;;;;;;5134045;27;19910;-74
2023/07/25 07:45:31;;;;;;;;;;;42.90;54.20;;;;;;5134149;27;19912;-74
2023/07/25 07:47:57;;;;;;;;;;;43.20;54.20;;;;;;5133882;27;19949;-74
2023/07/25 07:50:22;;;;;;;;;;;43.30;53.70;;;;;;5134023;27;19903;-74
2023/07/25 07:52:48;;;;;;;;;;;43.40;54.00;;;;;;5133802;27;19908;-74
2023/07/25 07:55:15;;;;;;;;;;;43.20;54.70;;;;;;5134055;27;19903;-74
2023/07/25 07:57:44;;;;;;;;;;;43.40;54.60;;;;;;5133799;27;19904;-74
2023/07/25 08:00:11;;;;;;;;;;;43.20;55.00;;;;;;5132955;27;19910;-74
2023/07/25 08:02:37;;;;;;;;;;;43.60;55.10;;;;;;5132324;28;19903;-75
2023/07/25 08:05:03;;;;;;;;;;;43.60;55.40;;;;;;5133584;27;19912;-74
2023/07/25 08:07:30;;;;;;;;;;;43.40;55.40;;;;;;5133904;27;19960;-74
2023/07/25 08:09:56;;;;;;;;;;;42.90;54.10;;;;;;5133730;27;19903;-74
2023/07/25 08:12:22;;;;;;;;;;;41.60;55.30;;;;;;5133556;27;19935;-74
2023/07/25 08:14:48;;;;;;;;;;;41.80;56.30;;;;;;5133721;28;19936;-73
2023/07/25 08:17:14;;;;;;;;;;;42.00;56.80;;;;;;5133316;27;19948;-74
2023/07/25 08:19:40;;;;;;;;;;;42.10;56.50;;;;;;5132663;28;20246;-74
2023/07/25 08:22:06;;;;;;;;;;;42.00;56.60;;;;;;5133596;27;19904;-74
2023/07/25 08:24:34;;;;;;;;;;;42.10;57.20;;;;;;5133466;28;20014;-74
2023/07/25 08:27:00;;;;;;;;;;;42.50;56.90;;;;;;5133431;27;20299;-74
2023/07/25 08:29:26;;;;;;;;;;;42.90;56.10;;;;;;5133784;27;20391;-74
2023/07/25 08:31:52;;;;;;;;;;;42.70;56.10;;;;;;5133118;27;19947;-75
2023/07/25 08:34:18;;;;;;;;;;;42.70;56.60;;;;;;5133650;27;19934;-75
2023/07/25 08:36:44;;;;;;;;;;;43.00;57.00;;;;;;5132104;28;19946;-73
2023/07/25 08:39:10;;;;;;;;;;;42.90;57.10;;;;;;5133381;28;19980;-75
2023/07/25 08:41:38;;;;;;;;;;;43.20;56.60;;;;;;5132185;28;19956;-75
2023/07/25 08:44:04;;;;;;;;;;;42.90;56.40;;;;;;5133703;27;20154;-75
2023/07/25 08:46:31;;;;;;;;;;;42.10;56.40;;;;;;5133209;27;19911;-73
2023/07/25 08:49:00;;;;;;;;;;;41.70;56.20;;;;;;5133045;27;19910;-73
2023/07/25 08:51:27;;;;;;;;;;;41.60;57.00;;;;;;5133480;27;19904;-74
2023/07/25 08:54:01;;;;;;;;;;;41.70;57.00;;;;;;5133352;27;19969;-74
2023/07/25 08:56:28;;;;;;;;;;;41.90;57.10;;;;;;5133009;27;20274;-74
2023/07/25 08:58:54;;;;;;;;;;;41.70;56.80;;;;;;5132878;27;19910;-74
2023/07/25 09:01:21;;;;;;;;;;;41.80;56.40;;;;;;5133133;27;19956;-72
2023/07/25 09:03:48;;;;;;;;;;;41.70;56.50;;;;;;5132964;27;19903;-74
2023/07/25 09:06:14;;;;;;;;;;;41.80;57.30;;;;;;5133393;27;19961;-74
2023/07/25 09:08:40;;;;;;;;;;;41.50;57.20;;;;;;5132778;27;19903;-73
2023/07/25 09:11:08;;;;;;;;;;;41.30;57.10;;;;;;5134929;27;20008;-74
2023/07/25 09:13:34;;;;;;;;;;;41.50;57.00;;;;;;5136557;27;19990;-73
2023/07/25 09:16:00;;;;;;;;;;;41.70;57.00;;;;;;5136453;27;19951;-73
2023/07/25 09:18:26;;;;;;;;;;;41.40;56.40;;;;;;5136548;27;20337;-74
2023/07/25 09:20:52;;;;;;;;;;;41.30;57.70;;;;;;5136376;27;19904;-74
2023/07/25 09:23:21;;;;;;;;;;;40.80;57.00;;;;;;5136495;27;19946;-73
2023/07/25 09:25:49;;;;;;;;;;;40.20;58.80;;;;;;5136483;27;19911;-73
2023/07/25 09:28:15;;;;;;;;;;;40.10;59.50;;;;;;5136863;27;19910;-74
2023/07/25 09:30:50;;;;;;;;;;;40.20;59.50;;;;;;5136143;27;19903;-74
2023/07/25 09:33:26;;;;;;;;;;;40.40;58.90;;;;;;5135987;27;19915;-74
2023/07/25 09:35:52;;;;;;;;;;;40.40;58.80;;;;;;5136381;27;19903;-74
2023/07/25 09:38:18;;;;;;;;;;;40.00;60.00;;;;;;5136320;27;19903;-75
2023/07/25 09:40:45;;;;;;;;;;;39.80;60.80;;;;;;5136139;27;19992;-74
2023/07/25 09:43:28;;;;;;;;;;;39.50;60.60;;;;;;5136514;27;19903;-74
2023/07/25 09:45:55;;;;;;;;;;;39.60;60.70;;;;;;5135944;27;19923;-75
2023/07/25 09:48:21;;;;;;;;;;;39.80;61.20;;;;;;5136151;27;19911;-75
2023/07/25 09:50:47;;;;;;;;;;;39.80;60.50;;;;;;5136112;27;20229;-74
2023/07/25 09:53:17;;;;;;;;;;;39.70;61.30;;;;;;5134489;27;19907;-75
2023/07/25 09:55:44;;;;;;;;;;;39.70;61.90;;;;;;5136530;27;19903;-75
2023/07/25 09:58:10;;;;;;;;;;;39.50;62.10;;;;;;5134561;27;19908;-74
2023/07/25 10:00:36;;;;;;;;;;;39.70;61.20;;;;;;5134245;27;19909;-74
2023/07/25 10:03:02;;;;;;;;;;;39.50;62.40;;;;;;5135907;27;19982;-75
2023/07/25 10:05:28;;;;;;;;;;;39.60;61.90;;;;;;5135679;27;19918;-74
2023/07/25 10:07:57;;;;;;;;;;;39.40;62.00;;;;;;5134255;27;19907;-74
2023/07/25 10:10:24;;;;;;;;;;;38.90;62.90;;;;;;5136205;27;19903;-74
2023/07/25 10:12:50;;;;;;;;;;;38.60;63.00;;;;;;5135696;27;19914;-74
2023/07/25 10:15:17;;;;;;;;;;;38.50;63.50;;;;;;5134260;27;20010;-74
2023/07/25 10:17:42;;;;;;;;;;;38.50;64.20;;;;;;5135504;27;20355;-75
2023/07/25 10:20:08;;;;;;;;;;;38.40;63.90;;;;;;5135890;27;19904;-71
2023/07/25 10:22:35;;;;;;;;;;;38.50;63.80;;;;;;5134736;27;19910;-74
2023/07/25 10:25:01;;;;;;;;;;;38.40;64.30;;;;;;5135887;27;20319;-74
2023/07/25 10:27:27;;;;;;;;;;;38.60;64.30;;;;;;5135472;27;19910;-74
2023/07/25 10:29:53;;;;;;;;;;;38.70;64.40;;;;;;5135250;27;19903;-74
2023/07/25 10:32:22;;;;;;;;;;;38.00;65.10;;;;;;5133558;27;19915;-74
2023/07/25 10:34:48;;;;;;;;;;;38.00;65.70;;;;;;5135484;27;19910;-75
2023/07/25 10:37:21;;;;;;;;;;;38.00;65.50;;;;;;5135137;27;19985;-74
2023/07/25 10:39:49;;;;;;;;;;;38.00;65.50;;;;;;5135046;27;20270;-75
2023/07/25 10:42:15;;;;;;;;;;;38.20;65.00;;;;;;5135029;27;19903;-74
2023/07/25 10:44:41;;;;;;;;;;;37.90;64.90;;;;;;5135080;27;19919;-74
2023/07/25 10:47:26;;;;;;;;;;;37.80;66.50;;;;;;5134587;27;20245;-74
2023/07/25 10:49:56;;;;;;;;;;;38.00;65.90;;;;;;5134788;27;20323;-74
2023/07/25 10:52:42;;;;;;;;;;;38.30;65.70;;;;;;5133414;27;20442;-74
2023/07/25 10:55:09;;;;;;;;;;;38.30;65.80;;;;;;5132669;27;19903;-74
2023/07/25 10:57:35;;;;;;;;;;;38.30;66.10;;;;;;5134587;27;19907;-74
2023/07/25 11:00:05;;;;;;;;;;;38.20;65.40;;;;;;5132975;27;20277;-74
2023/07/25 11:02:51;;;;;;;;;;;38.10;66.60;;;;;;5134834;27;19903;-74
2023/07/25 11:05:16;;;;;;;;;;;38.10;66.20;;;;;;5132909;27;19912;-74
2023/07/25 11:07:45;;;;;;;;;;;37.90;66.70;;;;;;5134495;27;19903;-74
2023/07/25 11:10:17;;;;;;;;;;;37.90;66.40;;;;;;5134309;27;20002;-74
2023/07/25 11:12:46;;;;;;;;;;;38.20;65.60;;;;;;5134363;27;19907;-74
2023/07/25 11:15:12;;;;;;;;;;;38.20;66.40;;;;;;5133679;27;19903;-74
2023/07/25 11:17:37;;;;;;;;;;;38.00;66.90;;;;;;5132467;27;20040;-74
2023/07/25 11:20:21;;;;;;;;;;;38.40;66.00;;;;;;5134253;27;19910;-74
2023/07/25 11:22:48;;;;;;;;;;;38.40;65.80;;;;;;5134218;27;20401;-74
2023/07/25 11:25:15;;;;;;;;;;;38.60;65.60;;;;;;5132645;27;20271;-74
2023/07/25 11:27:45;;;;;;;;;;;38.30;66.50;;;;;;5134378;27;19952;-74
2023/07/25 11:30:18;;;;;;;;;;;38.30;65.50;;;;;;5132671;27;20350;-74
2023/07/25 11:32:51;;;;;;;;;;;38.40;65.70;;;;;;5133874;27;19922;-74
2023/07/25 11:35:17;;;;;;;;;;;37.50;67.40;;;;;;5132662;27;19948;-74
2023/07/25 11:37:43;;;;;;;;;;;37.90;68.40;;;;;;5134127;27;19983;-74
2023/07/25 11:40:13;;;;;;;;;;;38.00;67.10;;;;;;5134427;27;19914;-74
2023/07/25 11:42:40;;;;;;;;;;;38.20;67.60;;;;;;5134009;27;19939;-74
2023/07/25 11:45:06;;;;;;;;;;;38.20;67.10;;;;;;5133868;27;19917;-74
2023/07/25 11:47:32;;;;;;;;;;;38.10;67.60;;;;;;5134544;27;19903;-74
2023/07/25 11:49:58;;;;;;;;;;;37.50;68.80;;;;;;5133897;27;19914;-74
2023/07/25 11:52:24;;;;;;;;;;;37.70;69.30;;;;;;5133946;27;19903;-74
2023/07/25 11:54:50;;;;;;;;;;;37.80;68.50;;;;;;5133957;27;19994;-74
2023/07/25 11:57:16;;;;;;;;;;;38.00;69.60;;;;;;5134103;27;19956;-74
2023/07/25 11:59:41;;;;;;;;;;;38.00;70.20;;;;;;5133521;27;19907;-74
2023/07/25 12:02:08;;;;;;;;;;;38.20;70.00;;;;;;5133595;27;19935;-74
2023/07/25 12:04:41;;;;;;;;;;;38.30;70.70;;;;;;5132117;28;19907;-74
2023/07/25 12:07:07;;;;;;;;;;;38.40;70.90;;;;;;5134183;27;19937;-74
2023/07/25 12:09:32;;;;;;;;;;;38.30;71.00;;;;;;5133948;27;20343;-74
2023/07/25 12:11:58;;;;;;;;;;;38.00;70.40;;;;;;5132093;28;19907;-74
2023/07/25 12:14:24;;;;;;;;;;;38.20;70.90;;;;;;5134006;27;19965;-74
2023/07/25 12:16:50;;;;;;;;;;;38.30;70.80;;;;;;5133561;27;19911;-74
2023/07/25 12:19:16;;;;;;;;;;;37.90;70.90;;;;;;5132293;28;19908;-74
2023/07/25 12:21:45;;;;;;;;;;;37.80;70.20;;;;;;5133522;28;19946;-74
2023/07/25 12:24:20;;;;;;;;;;;37.90;71.20;;;;;;5133999;27;20259;-75
2023/07/25 12:26:47;;;;;;;;;;;38.20;71.60;;;;;;5132143;28;20060;-74
2023/07/25 12:29:17;;;;;;;;;;;38.40;71.30;;;;;;5133852;27;19926;-74
2023/07/25 12:31:43;;;;;;;;;;;38.30;70.50;;;;;;5133244;27;20060;-74
2023/07/25 12:34:09;;;;;;;;;;;38.50;70.00;;;;;;5131964;28;19947;-74
2023/07/25 12:36:35;;;;;;;;;;;38.30;71.00;;;;;;5132023;28;19941;-75
2023/07/25 12:39:00;;;;;;;;;;;38.50;71.00;;;;;;5133525;27;19907;-74
2023/07/25 12:41:26;;;;;;;;;;;38.50;71.00;;;;;;5133407;27;20384;-74
2023/07/25 12:43:52;;;;;;;;;;;38.50;71.50;;;;;;5131824;28;19904;-74
2023/07/25 12:46:18;;;;;;;;;;;38.50;71.90;;;;;;5134325;27;19907;-75
2023/07/25 12:48:44;;;;;;;;;;;38.40;71.50;;;;;;5135831;27;20002;-74
2023/07/25 12:51:10;;;;;;;;;;;38.30;72.20;;;;;;5136956;27;19907;-74
2023/07/25 12:53:35;;;;;;;;;;;38.20;73.40;;;;;;5137527;27;20338;-74
2023/07/25 12:56:01;;;;;;;;;;;38.30;73.20;;;;;;5137009;27;20247;-73
2023/07/25 12:58:27;;;;;;;;;;;38.30;73.00;;;;;;5137203;27;19904;-73
2023/07/25 13:00:54;;;;;;;;;;;38.10;73.80;;;;;;5136713;27;19939;-74
2023/07/25 13:03:23;;;;;;;;;;;38.00;74.20;;;;;;5137383;27;19903;-73
2023/07/25 13:05:49;;;;;;;;;;;37.90;74.90;;;;;;5136966;27;19911;-73
2023/07/25 13:08:15;;;;;;;;;;;37.60;74.50;;;;;;5136990;27;19926;-73
2023/07/25 13:10:41;;;;;;;;;;;37.50;75.20;;;;;;5137057;27;19933;-73
2023/07/25 13:13:07;;;;;;;;;;;37.50;75.90;;;;;;5136928;27;19964;-73
2023/07/25 13:15:33;;;;;;;;;;;37.60;75.40;;;;;;5136683;27;19903;-72
2023/07/25 13:17:59;;;;;;;;;;;37.60;75.00;;;;;;5136994;27;19903;-74
2023/07/25 13:20:25;;;;;;;;;;;37.80;75.40;;;;;;5136685;27;19910;-74
2023/07/25 13:22:52;;;;;;;;;;;37.60;75.40;;;;;;5136666;27;19907;-74
2023/07/25 13:25:18;;;;;;;;;;;37.90;75.40;;;;;;5136848;27;20009;-74
2023/07/25 13:27:44;;;;;;;;;;;37.80;75.00;;;;;;5136795;27;19910;-74
2023/07/25 13:30:10;;;;;;;;;;;37.90;75.60;;;;;;5136591;27;20274;-73
2023/07/25 13:32:36;;;;;;;;;;;38.10;75.00;;;;;;5136284;27;20371;-74
2023/07/25 13:35:01;;;;;;;;;;;38.10;75.40;;;;;;5136471;27;19910;-74
2023/07/25 13:37:27;;;;;;;;;;;38.10;75.80;;;;;;5136683;27;19903;-74
2023/07/25 13:39:53;;;;;;;;;;;37.90;76.10;;;;;;5137016;27;20323;-75
2023/07/25 13:42:19;;;;;;;;;;;37.90;76.50;;;;;;5135009;27;19946;-74
2023/07/25 13:44:44;;;;;;;;;;;37.80;77.10;;;;;;5136295;27;20351;-74
2023/07/25 13:47:10;;;;;;;;;;;37.60;76.90;;;;;;5135981;27;20018;-73
2023/07/25 13:49:49;;;;;;;;;;;37.40;77.80;;;;;;5136249;27;19911;-74
2023/07/25 13:52:17;;;;;;;;;;;37.10;78.70;;;;;;5136179;27;20266;-73
2023/07/25 13:54:44;;;;;;;;;;;37.00;79.30;;;;;;5136173;27;20418;-74
2023/07/25 13:57:09;;;;;;;;;;;37.20;79.70;;;;;;5133634;27;19907;-75
2023/07/25 13:59:35;;;;;;;;;;;37.00;79.80;;;;;;5136394;27;19948;-74
2023/07/25 14:02:02;;;;;;;;;;;36.70;80.40;;;;;;5135955;27;19907;-73
2023/07/25 14:04:28;;;;;;;;;;;36.90;80.40;;;;;;5135888;27;19907;-74
2023/07/25 14:06:54;;;;;;;;;;;37.00;80.10;;;;;;5134959;27;20085;-74
2023/07/25 14:09:20;;;;;;;;;;;37.10;80.50;;;;;;5135912;27;19907;-74
2023/07/25 14:11:46;;;;;;;;;;;37.20;79.80;;;;;;5136094;27;19903;-74